Dades meteomassalio
Diari Summary for Noviembre 29, 2017 Units:  English    Metric   Both
« Previous Day
Next Day »
Diari Semanal Mensual Anual Personalitzat
  Maxima: Minima: Mijana:
Temperatura: TemperatureC °F -2.2 °F 5.1 °F
Rosada: DewpointC °F -6.8 °F -0.6 °F
Humitat: Humidity % 51 % 67 %
Velocitat del vent: WindSpeedKMH mph 0.0 mph 17.4 mph
Racha vent: WindSpeedGustKMH mph - -
Vent:- - WNW
Pressio: PressurehPa in 1010.0 in -
Pluja: 0.0 in    
Historical Graphs
 
 
Tabular Data for Noviembre 29, 2017
Time Temperature Dew Point Pressure Wind Wind Speed Wind Gust Humidity Rainfall Rate (Hourly) solar Conditions
TemperatureC °F DewpointC °F PressurehPa in Calm     Humidity % HourlyPrecipMM in SolarRadiationWatts/m^2 W/m2 Conditions
00:04 0.0 °F -3.9 °F 1015.1 in Calm     75 % 0.0 in 0.0 W/m2 CLR
00:09 0.0 °F -3.9 °F 1015.1 in Calm     75 % 0.0 in 0.0 W/m2 CLR
00:14 0.0 °F -3.9 °F 1015.1 in Calm     75 % 0.0 in 0.0 W/m2 CLR
00:19 0.0 °F -3.9 °F 1015.1 in Calm     75 % 0.0 in 0.0 W/m2 CLR
00:24 -0.6 °F -4.4 °F 1015.1 in Calm     75 % 0.0 in 0.0 W/m2 CLR
00:29 -0.6 °F -4.4 °F 1015.1 in Calm     75 % 0.0 in 0.0 W/m2 CLR
00:35 0.0 °F -3.9 °F 1015.1 in Calm     75 % 0.0 in 0.0 W/m2 CLR
00:39 0.0 °F -3.7 °F 1015.1 in Calm     76 % 0.0 in 0.0 W/m2 CLR
00:45 0.0 °F -3.7 °F 1014.8 in Calm     76 % 0.0 in 0.0 W/m2 CLR
00:50 0.0 °F -3.9 °F 1014.8 in Calm     75 % 0.0 in 0.0 W/m2 CLR
00:55 0.0 °F -4.1 °F 1014.8 in Calm     74 % 0.0 in 0.0 W/m2 CLR
01:04 0.0 °F -3.9 °F 1014.4 in Calm     75 % 0.0 in 0.0 W/m2 CLR
01:10 0.0 °F -3.7 °F 1014.4 in Calm     76 % 0.0 in 0.0 W/m2 CLR
01:15 0.0 °F -3.7 °F 1014.4 in Calm     76 % 0.0 in 0.0 W/m2 CLR
01:20 0.6 °F -3.4 °F 1014.4 in Calm     75 % 0.0 in 0.0 W/m2 CLR
01:25 0.6 °F -3.4 °F 1014.4 in Calm     75 % 0.0 in 0.0 W/m2 CLR
01:30 0.6 °F -3.4 °F 1014.4 in Calm     75 % 0.0 in 0.0 W/m2 CLR
01:35 0.6 °F -3.2 °F 1014.1 in Calm     76 % 0.0 in 0.0 W/m2 CLR
01:40 0.6 °F -3.4 °F 1014.1 in Calm     75 % 0.0 in 0.0 W/m2 CLR
01:55 0.0 °F -4.1 °F 1014.1 in Calm     74 % 0.0 in 0.0 W/m2 CLR
02:00 0.0 °F -3.9 °F 1013.8 in Calm     75 % 0.0 in 0.0 W/m2 CLR
02:05 0.0 °F -3.9 °F 1013.8 in Calm     75 % 0.0 in 0.0 W/m2 CLR
02:10 0.0 °F -3.9 °F 1013.8 in Calm     75 % 0.0 in 0.0 W/m2 CLR
02:15 0.0 °F -3.9 °F 1013.8 in Calm     75 % 0.0 in 0.0 W/m2 CLR
02:20 0.0 °F -4.1 °F 1013.8 in Calm     74 % 0.0 in 0.0 W/m2 CLR
02:25 0.0 °F -3.9 °F 1013.8 in Calm     75 % 0.0 in 0.0 W/m2 CLR
02:30 0.0 °F -3.9 °F 1013.4 in Calm     75 % 0.0 in 0.0 W/m2 CLR
02:40 -0.6 °F -4.3 °F 1013.4 in Calm     76 % 0.0 in 0.0 W/m2 CLR
02:50 0.0 °F -3.7 °F 1013.4 in Calm     76 % 0.0 in 0.0 W/m2 CLR
03:00 0.0 °F -4.1 °F 1013.4 in Calm     74 % 0.0 in 0.0 W/m2 CLR
03:05 0.0 °F -4.1 °F 1013.4 in Calm     74 % 0.0 in 0.0 W/m2 CLR
03:10 0.0 °F -4.3 °F 1013.1 in Calm     73 % 0.0 in 0.0 W/m2 CLR
03:15 0.0 °F -4.1 °F 1013.1 in Calm     74 % 0.0 in 0.0 W/m2 CLR
03:20 0.0 °F -3.9 °F 1013.1 in Calm     75 % 0.0 in 0.0 W/m2 CLR
03:25 0.0 °F -3.9 °F 1013.1 in Calm     75 % 0.0 in 0.0 W/m2 CLR
03:30 0.0 °F -4.1 °F 1012.8 in Calm     74 % 0.0 in 0.0 W/m2 CLR
03:35 0.0 °F -4.1 °F 1012.8 in Calm     74 % 0.0 in 0.0 W/m2 CLR
03:40 0.0 °F -4.1 °F 1012.8 in Calm     74 % 0.0 in 0.0 W/m2 CLR
03:45 0.0 °F -4.1 °F 1012.8 in Calm     74 % 0.0 in 0.0 W/m2 CLR
03:50 0.0 °F -4.1 °F 1012.8 in Calm     74 % 0.0 in 0.0 W/m2 CLR
03:55 0.0 °F -3.9 °F 1012.8 in Calm     75 % 0.0 in 0.0 W/m2 CLR
04:00 0.0 °F -3.9 °F 1012.8 in Calm     75 % 0.0 in 0.0 W/m2 CLR
04:05 0.0 °F -3.9 °F 1012.8 in Calm     75 % 0.0 in 0.0 W/m2 CLR
04:11 0.0 °F -3.9 °F 1012.4 in Calm     75 % 0.0 in 0.0 W/m2 CLR
04:18 0.0 °F -3.9 °F 1012.4 in Calm     75 % 0.0 in 0.0 W/m2 CLR
04:19 0.0 °F -3.9 °F 1012.4 in Calm     75 % 0.0 in 0.0 W/m2 CLR
04:22 0.0 °F -4.1 °F 1012.4 in Calm     74 % 0.0 in 0.0 W/m2 CLR
04:24 0.0 °F -3.9 °F 1012.4 in Calm     75 % 0.0 in 0.0 W/m2 CLR
04:26 -0.6 °F -4.4 °F 1012.4 in Calm     75 % 0.0 in 0.0 W/m2 CLR
04:28 -0.6 °F -4.4 °F 1012.4 in Calm     75 % 0.0 in 0.0 W/m2 CLR
04:31 -0.6 °F -4.4 °F 1012.4 in Calm     75 % 0.0 in 0.0 W/m2 CLR
04:36 -0.6 °F -4.6 °F 1012.4 in Calm     74 % 0.0 in 0.0 W/m2 CLR
04:51 -0.6 °F -4.6 °F 1012.1 in Calm     74 % 0.0 in 0.0 W/m2 CLR
04:56 -0.6 °F -4.6 °F 1012.1 in Calm     74 % 0.0 in 0.0 W/m2 CLR
05:06 -0.6 °F -4.6 °F 1012.1 in Calm     74 % 0.0 in 0.0 W/m2 CLR
05:16 -0.6 °F -4.6 °F 1012.1 in Calm     74 % 0.0 in 0.0 W/m2 CLR
05:21 -0.6 °F -4.8 °F 1011.7 in Calm     73 % 0.0 in 0.0 W/m2 CLR
05:26 -1.1 °F -5.5 °F 1012.1 in Calm     72 % 0.0 in 0.0 W/m2 CLR
05:31 -1.1 °F -5.5 °F 1012.1 in Calm     72 % 0.0 in 0.0 W/m2 CLR
05:41 -1.1 °F -5.7 °F 1011.7 in Calm     71 % 0.0 in 0.0 W/m2 CLR
05:46 -1.1 °F -5.7 °F 1011.7 in Calm     71 % 0.0 in 0.0 W/m2 CLR
05:51 -1.1 °F -5.5 °F 1011.7 in Calm     72 % 0.0 in 0.0 W/m2 CLR
05:56 -1.7 °F -6.1 °F 1011.7 in Calm     72 % 0.0 in 0.0 W/m2 CLR
06:01 -1.7 °F -6.1 °F 1011.7 in Calm     72 % 0.0 in 0.0 W/m2 CLR
06:06 -1.7 °F -5.9 °F 1011.7 in Calm     73 % 0.0 in 0.0 W/m2 CLR
06:11 -1.7 °F -5.9 °F 1011.7 in Calm     73 % 0.0 in 0.0 W/m2 CLR
06:16 -1.7 °F -5.9 °F 1011.7 in Calm     73 % 0.0 in 0.0 W/m2 CLR
06:36 -2.2 °F -6.2 °F 1011.7 in Calm     74 % 0.0 in 0.0 W/m2 CLR
06:46 -1.7 °F -5.9 °F 1011.7 in WNW 8.0 mph 8.0 mph 73 % 0.0 in 0.0 W/m2 CLR
06:51 -1.7 °F -5.9 °F 1011.4 in WNW 14.8 mph 14.8 mph 73 % 0.0 in 0.0 W/m2 CLR
06:56 -1.1 °F -5.9 °F 1011.4 in WNW 18.5 mph 18.5 mph 70 % 0.0 in 0.0 W/m2 CLR
07:11 -1.1 °F -6.4 °F 1011.4 in NW 14.8 mph 14.8 mph 67 % 0.0 in 0.0 W/m2 CLR
07:16 -1.1 °F -6.4 °F 1011.4 in NW 18.5 mph 18.5 mph 67 % 0.0 in 0.0 W/m2 CLR
07:21 -1.7 °F -6.8 °F 1011.4 in NW 16.7 mph 16.7 mph 68 % 0.0 in 0.0 W/m2 CLR
07:26 -1.7 °F -6.8 °F 1011.4 in NW 18.5 mph 18.5 mph 68 % 0.0 in 0.0 W/m2 CLR
07:42 -2.2 °F -6.8 °F 1011.1 in NW 14.8 mph 14.8 mph 71 % 0.0 in 0.0 W/m2 CLR
07:47 -2.2 °F -6.6 °F 1011.4 in WNW 18.5 mph 18.5 mph 72 % 0.0 in 0.0 W/m2 CLR
07:52 -2.2 °F -6.4 °F 1011.4 in NW 22.2 mph 22.2 mph 73 % 0.0 in 0.0 W/m2 CLR
08:12 2.8 °F -1.4 °F 1011.1 in WNW 24.1 mph 24.1 mph 74 % 0.0 in 5.0 W/m2 OVC
08:17 3.9 °F -0.3 °F 1011.4 in NW 25.9 mph 25.9 mph 74 % 0.0 in 7.0 W/m2 OVC
08:22 5.0 °F 0.7 °F 1011.4 in NW 22.5 mph 22.5 mph 74 % 0.0 in 7.0 W/m2 BKN
08:27 5.0 °F 0.9 °F 1011.4 in NW 18.5 mph 18.5 mph 75 % 0.0 in 9.0 W/m2 BKN
08:32 5.0 °F 0.9 °F 1011.4 in NW 18.5 mph 18.5 mph 75 % 0.0 in 11.0 W/m2 BKN
08:37 5.0 °F 1.1 °F 1011.4 in WNW 24.1 mph 24.1 mph 76 % 0.0 in 12.0 W/m2 BKN
08:42 5.0 °F 1.1 °F 1011.4 in NW 19.3 mph 19.3 mph 76 % 0.0 in 14.0 W/m2 BKN
08:47 5.6 °F 1.7 °F 1011.7 in NW 22.2 mph 22.2 mph 76 % 0.0 in 19.0 W/m2 BKN
08:52 5.6 °F 1.7 °F 1011.7 in WNW 18.5 mph 18.5 mph 76 % 0.0 in 23.0 W/m2 BKN
08:57 5.6 °F 1.7 °F 1011.7 in NW 16.7 mph 16.7 mph 76 % 0.0 in 37.0 W/m2 BKN
09:02 5.6 °F 1.4 °F 1011.7 in WNW 16.7 mph 16.7 mph 75 % 0.0 in 60.0 W/m2 SCT
09:07 5.6 °F 1.4 °F 1011.7 in WNW 18.5 mph 18.5 mph 75 % 0.0 in 77.0 W/m2 SCT
09:12 6.1 °F 2.0 °F 1012.1 in NW 20.4 mph 20.4 mph 75 % 0.0 in 95.0 W/m2 FEW
09:17 6.1 °F 1.8 °F 1012.1 in WNW 18.5 mph 18.5 mph 74 % 0.0 in 120.0 W/m2 CLR
09:27 6.7 °F 2.2 °F 1012.1 in West 22.2 mph 22.2 mph 73 % 0.0 in 134.0 W/m2 CLR
09:32 6.7 °F 2.0 °F 1012.1 in WNW 22.2 mph 22.2 mph 72 % 0.0 in 153.0 W/m2 CLR
09:37 7.2 °F 2.5 °F 1012.1 in WNW 18.5 mph 18.5 mph 72 % 0.0 in 178.0 W/m2 CLR
09:47 7.2 °F 2.3 °F 1012.1 in NW 24.1 mph 24.1 mph 71 % 0.0 in 156.0 W/m2 CLR
09:52 7.8 °F 2.8 °F 1012.1 in NNW 24.1 mph 24.1 mph 71 % 0.0 in 220.0 W/m2 CLR
10:07 7.8 °F 2.4 °F 1012.1 in NW 25.9 mph 25.9 mph 69 % 0.0 in 260.0 W/m2 CLR
10:17 8.3 °F 3.0 °F 1012.1 in NNW 20.4 mph 20.4 mph 69 % 0.0 in 279.0 W/m2 CLR
10:32 8.3 °F 2.8 °F 1012.1 in NNW 27.4 mph 27.4 mph 68 % 0.0 in 309.0 W/m2 CLR
10:42 8.9 °F 3.5 °F 1012.1 in North 20.4 mph 20.4 mph 69 % 0.0 in 325.0 W/m2 CLR
10:47 8.9 °F 3.3 °F 1012.1 in NNW 27.8 mph 27.8 mph 68 % 0.0 in 339.0 W/m2 CLR
10:52 8.9 °F 3.3 °F 1012.1 in NW 13.0 mph 13.0 mph 68 % 0.0 in 346.0 W/m2 CLR
10:57 8.9 °F 3.1 °F 1012.1 in NNW 31.5 mph 31.5 mph 67 % 0.0 in 355.0 W/m2 CLR
11:02 8.9 °F 3.1 °F 1012.1 in NNW 29.0 mph 29.0 mph 67 % 0.0 in 355.0 W/m2 CLR
11:12 9.4 °F 3.4 °F 1012.1 in North 31.5 mph 31.5 mph 66 % 0.0 in 388.0 W/m2 CLR
11:17 9.4 °F 3.2 °F 1012.1 in NNW 22.2 mph 22.2 mph 65 % 0.0 in 93.0 W/m2 CLR
11:22 9.4 °F 3.2 °F 1012.1 in North 24.1 mph 24.1 mph 65 % 0.0 in 415.0 W/m2 CLR
11:32 10.0 °F 3.5 °F 1012.1 in NNE 22.5 mph 22.5 mph 64 % 0.0 in 91.0 W/m2 CLR
11:37 9.4 °F 2.9 °F 1012.1 in NNW 20.4 mph 20.4 mph 64 % 0.0 in 60.0 W/m2 FEW
11:47 9.4 °F 2.9 °F 1011.7 in NNW 25.9 mph 25.9 mph 64 % 0.0 in 443.0 W/m2 CLR
11:57 10.0 °F 3.3 °F 1011.7 in NNW 31.5 mph 31.5 mph 63 % 0.0 in 79.0 W/m2 CLR
12:02 9.4 °F 2.9 °F 1011.7 in North 33.3 mph 33.3 mph 64 % 0.0 in 468.0 W/m2 CLR
12:12 10.0 °F 3.1 °F 1011.4 in NNW 27.8 mph 27.8 mph 62 % 0.0 in 489.0 W/m2 CLR
12:17 10.0 °F 3.1 °F 1011.4 in NW 29.6 mph 29.6 mph 62 % 0.0 in 476.0 W/m2 CLR
12:22 10.0 °F 3.1 °F 1011.4 in NW 31.5 mph 31.5 mph 62 % 0.0 in 522.0 W/m2 CLR
12:27 10.6 °F 3.6 °F 1011.4 in North 16.1 mph 16.1 mph 62 % 0.0 in 531.0 W/m2 CLR
12:37 11.1 °F 3.4 °F 1011.1 in NNW 29.6 mph 29.6 mph 59 % 0.0 in 475.0 W/m2 CLR
12:42 11.1 °F 3.4 °F 1011.1 in NNW 19.3 mph 19.3 mph 59 % 0.0 in 468.0 W/m2 CLR
13:02 10.6 °F 2.4 °F 1010.7 in North 42.6 mph 42.6 mph 57 % 0.0 in 461.0 W/m2 CLR
13:07 10.6 °F 2.4 °F 1010.7 in North 25.9 mph 25.9 mph 57 % 0.0 in 452.0 W/m2 CLR
13:12 11.1 °F 2.9 °F 1010.7 in North 32.2 mph 32.2 mph 57 % 0.0 in 452.0 W/m2 CLR
13:17 11.1 °F 2.7 °F 1010.7 in North 31.5 mph 31.5 mph 56 % 0.0 in 445.0 W/m2 CLR
13:22 11.1 °F 2.7 °F 1010.4 in North 31.5 mph 31.5 mph 56 % 0.0 in 443.0 W/m2 CLR
13:27 11.1 °F 2.2 °F 1010.4 in NNW 29.6 mph 29.6 mph 54 % 0.0 in 441.0 W/m2 CLR
13:32 11.1 °F 2.2 °F 1010.7 in NW 33.3 mph 33.3 mph 54 % 0.0 in 439.0 W/m2 CLR
13:37 11.7 °F 2.9 °F 1010.4 in North 27.8 mph 27.8 mph 55 % 0.0 in 436.0 W/m2 CLR
13:47 11.7 °F 2.9 °F 1010.4 in North 38.9 mph 38.9 mph 55 % 0.0 in 424.0 W/m2 CLR
13:58 11.7 °F 2.9 °F 1010.0 in North 27.8 mph 27.8 mph 55 % 0.0 in 417.0 W/m2 CLR
14:03 11.7 °F 2.7 °F 1010.0 in NW 31.5 mph 31.5 mph 54 % 0.0 in 413.0 W/m2 CLR
14:08 12.2 °F 2.9 °F 1010.0 in North 27.8 mph 27.8 mph 53 % 0.0 in 404.0 W/m2 CLR
14:13 11.7 °F 2.4 °F 1010.4 in NNW 33.3 mph 33.3 mph 53 % 0.0 in 397.0 W/m2 CLR
14:23 11.7 °F 2.7 °F 1010.0 in North 25.7 mph 25.7 mph 54 % 0.0 in 383.0 W/m2 CLR
14:28 11.7 °F 2.4 °F 1010.0 in North 35.2 mph 35.2 mph 53 % 0.0 in 380.0 W/m2 CLR
14:38 11.7 °F 2.1 °F 1010.0 in North 31.5 mph 31.5 mph 52 % 0.0 in 353.0 W/m2 CLR
14:48 12.2 °F 2.7 °F 1010.0 in North 37.0 mph 37.0 mph 52 % 0.0 in 348.0 W/m2 CLR
14:53 12.2 °F 2.9 °F 1010.0 in NNW 31.5 mph 31.5 mph 53 % 0.0 in 338.0 W/m2 CLR
14:58 12.2 °F 2.9 °F 1010.0 in NNE 32.2 mph 32.2 mph 53 % 0.0 in 329.0 W/m2 CLR
15:03 11.7 °F 2.4 °F 1010.0 in North 31.5 mph 31.5 mph 53 % 0.0 in 322.0 W/m2 CLR
15:08 11.7 °F 2.4 °F 1010.0 in North 35.4 mph 35.4 mph 53 % 0.0 in 313.0 W/m2 CLR
15:13 11.7 °F 2.1 °F 1010.0 in NNW 37.0 mph 37.0 mph 52 % 0.0 in 301.0 W/m2 CLR
15:18 11.7 °F 2.1 °F 1010.0 in North 25.9 mph 25.9 mph 52 % 0.0 in 288.0 W/m2 CLR
15:28 11.7 °F 1.8 °F 1010.0 in North 27.8 mph 27.8 mph 51 % 0.0 in 265.0 W/m2 CLR
15:38 11.7 °F 1.8 °F 1010.0 in NNW 35.2 mph 35.2 mph 51 % 0.0 in 244.0 W/m2 CLR
15:43 11.7 °F 2.1 °F 1010.0 in North 30.6 mph 30.6 mph 52 % 0.0 in 229.0 W/m2 CLR
15:48 11.7 °F 2.4 °F 1010.4 in North 31.5 mph 31.5 mph 53 % 0.0 in 214.0 W/m2 CLR
15:53 11.1 °F 1.9 °F 1010.4 in North 35.2 mph 35.2 mph 53 % 0.0 in 202.0 W/m2 CLR
15:58 11.1 °F 1.9 °F 1010.4 in North 27.8 mph 27.8 mph 53 % 0.0 in 185.0 W/m2 CLR
16:03 10.6 °F 1.4 °F 1010.4 in NNW 29.6 mph 29.6 mph 53 % 0.0 in 167.0 W/m2 CLR
16:13 10.6 °F 1.6 °F 1010.4 in NNW 35.2 mph 35.2 mph 54 % 0.0 in 144.0 W/m2 CLR
16:18 10.6 °F 1.6 °F 1010.7 in North 35.2 mph 35.2 mph 54 % 0.0 in 81.0 W/m2 CLR
16:23 10.6 °F 1.9 °F 1010.7 in North 29.6 mph 29.6 mph 55 % 0.0 in 114.0 W/m2 CLR
16:29 10.6 °F 1.9 °F 1010.7 in North 24.1 mph 24.1 mph 55 % 0.0 in 100.0 W/m2 CLR
16:34 10.0 °F 1.4 °F 1010.7 in North 22.2 mph 22.2 mph 55 % 0.0 in 90.0 W/m2 CLR
16:39 10.0 °F 1.4 °F 1010.7 in NNW 31.5 mph 31.5 mph 55 % 0.0 in 74.0 W/m2 FEW
16:44 10.0 °F 1.6 °F 1010.7 in NNW 31.5 mph 31.5 mph 56 % 0.0 in 23.0 W/m2 BKN
16:59 9.4 °F 1.1 °F 1010.7 in North 27.4 mph 27.4 mph 56 % 0.0 in 33.0 W/m2 BKN
17:04 9.4 °F 1.3 °F 1010.7 in NNW 31.5 mph 31.5 mph 57 % 0.0 in 21.0 W/m2 BKN
17:14 8.9 °F 1.1 °F 1010.7 in NW 20.4 mph 20.4 mph 58 % 0.0 in 12.0 W/m2 BKN
17:19 8.9 °F 1.3 °F 1011.1 in NW 22.2 mph 22.2 mph 59 % 0.0 in 11.0 W/m2 BKN
17:24 8.9 °F 1.3 °F 1011.1 in NW 22.2 mph 22.2 mph 59 % 0.0 in 9.0 W/m2 BKN
17:29 8.9 °F 1.6 °F 1011.1 in NNW 19.3 mph 19.3 mph 60 % 0.0 in 5.0 W/m2 BKN
17:34 8.3 °F 1.0 °F 1011.1 in NW 16.7 mph 16.7 mph 60 % 0.0 in 5.0 W/m2 OVC
17:39 8.3 °F 1.2 °F 1011.1 in NNW 18.5 mph 18.5 mph 61 % 0.0 in 0.0 W/m2 OVC
17:44 8.3 °F 1.2 °F 1011.1 in NNW 14.8 mph 14.8 mph 61 % 0.0 in 0.0 W/m2 CLR
17:49 8.3 °F 1.4 °F 1011.1 in NW 14.8 mph 14.8 mph 62 % 0.0 in 0.0 W/m2 CLR
17:54 7.8 °F 0.9 °F 1011.4 in NNW 16.7 mph 16.7 mph 62 % 0.0 in 0.0 W/m2 CLR
17:59 7.8 °F 0.9 °F 1011.4 in NNW 16.7 mph 16.7 mph 62 % 0.0 in 0.0 W/m2 CLR
18:09 7.8 °F 0.9 °F 1011.4 in NNW 18.5 mph 18.5 mph 62 % 0.0 in 0.0 W/m2 CLR
18:14 7.8 °F 1.2 °F 1011.4 in NNW 24.1 mph 24.1 mph 63 % 0.0 in 0.0 W/m2 CLR
18:17 7.8 °F 1.2 °F 1011.7 in NNW 29.6 mph 29.6 mph 63 % 0.0 in 0.0 W/m2 CLR
18:22 7.8 °F 1.2 °F 1011.7 in NNW 22.2 mph 22.2 mph 63 % 0.0 in 0.0 W/m2 CLR
18:32 7.8 °F 1.4 °F 1011.7 in NW 22.2 mph 22.2 mph 64 % 0.0 in 0.0 W/m2 CLR
18:37 7.8 °F 1.4 °F 1011.7 in NW 27.8 mph 27.8 mph 64 % 0.0 in 0.0 W/m2 CLR
18:42 7.8 °F 1.4 °F 1011.7 in NW 25.9 mph 25.9 mph 64 % 0.0 in 0.0 W/m2 CLR
18:47 7.8 °F 1.4 °F 1012.1 in NNW 27.8 mph 27.8 mph 64 % 0.0 in 0.0 W/m2 CLR
18:52 7.8 °F 1.4 °F 1012.1 in NW 20.4 mph 20.4 mph 64 % 0.0 in 0.0 W/m2 CLR
18:57 7.8 °F 1.4 °F 1012.1 in NW 25.9 mph 25.9 mph 64 % 0.0 in 0.0 W/m2 CLR
19:03 7.8 °F 1.4 °F 1012.4 in NW 25.9 mph 25.9 mph 64 % 0.0 in 0.0 W/m2 CLR
19:08 7.8 °F 1.4 °F 1012.4 in NW 16.7 mph 16.7 mph 64 % 0.0 in 0.0 W/m2 CLR
19:13 7.8 °F 1.4 °F 1012.4 in NW 27.8 mph 27.8 mph 64 % 0.0 in 0.0 W/m2 CLR
19:18 7.2 °F 1.1 °F 1012.4 in NW 25.9 mph 25.9 mph 65 % 0.0 in 0.0 W/m2 CLR
19:23 7.2 °F 1.1 °F 1012.4 in WNW 24.1 mph 24.1 mph 65 % 0.0 in 0.0 W/m2 CLR
19:28 7.2 °F 1.1 °F 1012.8 in NW 24.1 mph 24.1 mph 65 % 0.0 in 0.0 W/m2 CLR
19:33 7.2 °F 1.1 °F 1012.8 in NW 24.1 mph 24.1 mph 65 % 0.0 in 0.0 W/m2 CLR
19:48 6.7 °F 0.8 °F 1012.8 in NW 22.2 mph 22.2 mph 66 % 0.0 in 0.0 W/m2 CLR
19:53 6.7 °F 0.9 °F 1012.8 in NW 22.2 mph 22.2 mph 67 % 0.0 in 0.0 W/m2 CLR
20:03 6.7 °F 0.9 °F 1013.1 in NW 18.5 mph 18.5 mph 67 % 0.0 in 0.0 W/m2 CLR
20:18 6.7 °F 1.2 °F 1013.1 in NNW 19.3 mph 19.3 mph 68 % 0.0 in 0.0 W/m2 CLR
20:23 6.7 °F 1.2 °F 1013.1 in NW 20.4 mph 20.4 mph 68 % 0.0 in 0.0 W/m2 CLR
20:28 6.1 °F 0.7 °F 1013.1 in NW 20.9 mph 20.9 mph 68 % 0.0 in 0.0 W/m2 CLR
20:43 6.1 °F 0.7 °F 1013.1 in NW 18.5 mph 18.5 mph 68 % 0.0 in 0.0 W/m2 CLR
20:48 6.7 °F 1.2 °F 1013.1 in WNW 24.1 mph 24.1 mph 68 % 0.0 in 0.0 W/m2 CLR
20:53 6.1 °F 0.7 °F 1013.1 in NW 18.5 mph 18.5 mph 68 % 0.0 in 0.0 W/m2 CLR
20:58 6.1 °F 0.7 °F 1013.1 in NW 24.1 mph 24.1 mph 68 % 0.0 in 0.0 W/m2 CLR
21:03 6.1 °F 0.7 °F 1013.1 in NW 24.1 mph 24.1 mph 68 % 0.0 in 0.0 W/m2 CLR
21:13 6.1 °F 0.4 °F 1013.1 in NW 27.8 mph 27.8 mph 67 % 0.0 in 0.0 W/m2 CLR
21:18 6.1 °F 0.7 °F 1012.8 in West 25.9 mph 25.9 mph 68 % 0.0 in 0.0 W/m2 CLR
21:23 6.1 °F 0.7 °F 1012.8 in WNW 25.9 mph 25.9 mph 68 % 0.0 in 0.0 W/m2 CLR
21:28 6.1 °F 0.7 °F 1012.8 in NW 33.3 mph 33.3 mph 68 % 0.0 in 0.0 W/m2 CLR
21:33 6.1 °F 0.7 °F 1012.8 in NW 31.5 mph 31.5 mph 68 % 0.0 in 0.0 W/m2 CLR
21:38 6.1 °F 0.7 °F 1012.8 in NW 27.8 mph 27.8 mph 68 % 0.0 in 0.0 W/m2 CLR
21:43 6.1 °F 0.4 °F 1013.1 in NW 31.5 mph 31.5 mph 67 % 0.0 in 0.0 W/m2 CLR
21:48 6.1 °F 0.4 °F 1013.1 in WNW 32.2 mph 32.2 mph 67 % 0.0 in 0.0 W/m2 CLR
21:53 6.1 °F 0.2 °F 1013.1 in WNW 22.2 mph 22.2 mph 66 % 0.0 in 0.0 W/m2 CLR
22:03 6.1 °F 0.4 °F 1013.4 in NW 27.8 mph 27.8 mph 67 % 0.0 in 0.0 W/m2 CLR
22:13 5.6 °F -0.1 °F 1013.4 in WNW 31.5 mph 31.5 mph 67 % 0.0 in 0.0 W/m2 CLR
22:19 5.6 °F -0.1 °F 1013.4 in WNW 25.9 mph 25.9 mph 67 % 0.0 in 0.0 W/m2 CLR
22:24 5.6 °F -0.1 °F 1013.4 in West 29.0 mph 29.0 mph 67 % 0.0 in 0.0 W/m2 CLR
22:29 5.6 °F -0.1 °F 1013.4 in NW 27.8 mph 27.8 mph 67 % 0.0 in 0.0 W/m2 CLR
22:39 5.6 °F -0.1 °F 1013.4 in WNW 18.5 mph 18.5 mph 67 % 0.0 in 0.0 W/m2 CLR
22:44 5.6 °F 0.1 °F 1013.4 in NW 24.1 mph 24.1 mph 68 % 0.0 in 0.0 W/m2 CLR
22:46 5.6 °F 0.1 °F 1013.4 in WNW 27.8 mph 27.8 mph 68 % 0.0 in 0.0 W/m2 CLR
22:51 5.6 °F 0.1 °F 1013.4 in WNW 20.4 mph 20.4 mph 68 % 0.0 in 0.0 W/m2 CLR
22:56 5.0 °F -0.4 °F 1013.8 in NW 22.2 mph 22.2 mph 68 % 0.0 in 0.0 W/m2 CLR
23:01 5.0 °F -0.2 °F 1013.4 in North 22.2 mph 22.2 mph 69 % 0.0 in 0.0 W/m2 CLR
23:06 5.0 °F -0.2 °F 1013.8 in WNW 27.8 mph 27.8 mph 69 % 0.0 in 0.0 W/m2 CLR
23:21 5.0 °F 0.0 °F 1013.8 in NW 24.1 mph 24.1 mph 70 % 0.0 in 0.0 W/m2 CLR
23:26 5.0 °F 0.0 °F 1013.8 in NNW 18.5 mph 18.5 mph 70 % 0.0 in 0.0 W/m2 CLR
23:31 4.4 °F -0.6 °F 1013.8 in NW 18.5 mph 18.5 mph 70 % 0.0 in 0.0 W/m2 CLR
23:36 5.0 °F 0.2 °F 1013.8 in NW 25.7 mph 25.7 mph 71 % 0.0 in 0.0 W/m2 CLR
23:41 5.0 °F 0.2 °F 1013.8 in NW 25.9 mph 25.9 mph 71 % 0.0 in 0.0 W/m2 CLR
23:52 5.0 °F 0.4 °F 1013.8 in NW 35.2 mph 35.2 mph 72 % 0.0 in 0.0 W/m2 CLR
23:57 5.0 °F 0.4 °F 1013.8 in NNW 29.6 mph 29.6 mph 72 % 0.0 in 0.0 W/m2 CLR
Lo Temps de Massalio
Compliments of Weather Underground - 1 mb